createdAt,value
2019-06-20T00:00:51.133Z,17.10
2019-06-20T00:01:55.366Z,17.93
2019-06-20T00:03:00.231Z,18.03
2019-06-20T00:04:04.430Z,17.27
2019-06-20T00:05:09.240Z,19.50
2019-06-20T00:06:13.487Z,19.97
2019-06-20T00:07:18.311Z,18.80
2019-06-20T00:08:22.548Z,20.20
2019-06-20T00:09:27.391Z,18.17
2019-06-20T00:10:31.618Z,19.23
2019-06-20T00:11:36.481Z,17.63
2019-06-20T00:12:40.696Z,18.43
2019-06-20T00:13:45.513Z,18.50
2019-06-20T00:14:49.739Z,18.13
2019-06-20T00:15:54.618Z,18.27
2019-06-20T00:16:59.563Z,18.63
2019-06-20T00:18:04.415Z,19.30
2019-06-20T00:19:08.640Z,20.37
2019-06-20T00:20:13.448Z,18.97
2019-06-20T00:21:17.713Z,19.00
2019-06-20T00:22:22.528Z,19.30
2019-06-20T00:23:26.761Z,20.23
2019-06-20T00:24:31.577Z,20.50
2019-06-20T00:25:35.800Z,18.93
2019-06-20T00:26:40.632Z,21.10
2019-06-20T00:27:44.887Z,19.73
2019-06-20T00:28:49.675Z,18.57
2019-06-20T00:29:53.904Z,19.07
2019-06-20T00:30:58.712Z,19.43
2019-06-20T00:32:03.008Z,20.10
2019-06-20T00:33:07.840Z,20.27
2019-06-20T00:34:12.056Z,23.70
2019-06-20T00:35:16.899Z,21.17
2019-06-20T00:36:21.159Z,20.97
2019-06-20T00:37:25.967Z,21.83
2019-06-20T00:38:30.196Z,22.97
2019-06-20T00:39:34.997Z,22.73
2019-06-20T00:40:39.296Z,21.47
2019-06-20T00:41:44.176Z,21.13
2019-06-20T00:42:48.406Z,23.93
2019-06-20T00:43:53.330Z,21.20
2019-06-20T00:44:57.910Z,24.13
2019-06-20T00:46:02.739Z,21.13
2019-06-20T00:47:07.008Z,20.80
2019-06-20T00:48:11.842Z,22.13
2019-06-20T00:49:16.042Z,23.23
2019-06-20T00:50:20.861Z,21.95
2019-06-20T00:51:25.087Z,21.67
2019-06-20T00:52:29.929Z,23.60
2019-06-20T00:53:34.160Z,22.67
2019-06-20T00:54:39.206Z,21.93
2019-06-20T00:55:43.445Z,22.60
2019-06-20T00:56:48.267Z,23.40
2019-06-20T00:57:52.553Z,21.77
2019-06-20T00:58:57.360Z,21.93
2019-06-20T01:00:01.595Z,21.30
2019-06-20T01:01:06.415Z,21.87
2019-06-20T01:02:10.676Z,21.50
2019-06-20T01:03:15.503Z,22.47
2019-06-20T01:04:19.727Z,21.40
2019-06-20T01:05:24.736Z,23.07
2019-06-20T01:06:28.956Z,20.80
2019-06-20T01:07:33.816Z,21.43
2019-06-20T01:08:38.149Z,23.10
2019-06-20T01:09:42.968Z,21.70
2019-06-20T01:10:47.195Z,23.80
2019-06-20T01:11:52.013Z,21.30
2019-06-20T01:12:56.277Z,21.87
2019-06-20T01:14:01.088Z,22.33
2019-06-20T01:15:06.791Z,21.57
2019-06-20T01:16:11.609Z,22.70
2019-06-20T01:17:15.867Z,22.40
2019-06-20T01:18:20.731Z,21.30
2019-06-20T01:19:25.006Z,22.13
2019-06-20T01:20:29.802Z,22.60
2019-06-20T01:21:34.026Z,24.37
2019-06-20T01:22:38.881Z,21.57
2019-06-20T01:23:43.121Z,21.40
2019-06-20T01:24:47.949Z,22.03
2019-06-20T01:25:52.179Z,22.07
2019-06-20T01:26:57.001Z,20.60
2019-06-20T01:28:01.507Z,21.50
2019-06-20T01:29:06.380Z,20.30
2019-06-20T01:30:10.636Z,21.37
2019-06-20T01:31:15.431Z,23.03
2019-06-20T01:32:19.644Z,20.47
2019-06-20T01:33:24.502Z,21.27
2019-06-20T01:34:28.975Z,23.10
2019-06-20T01:35:33.813Z,22.20
2019-06-20T01:36:38.049Z,21.97
2019-06-20T01:37:42.889Z,23.53
2019-06-20T01:38:47.115Z,20.40
2019-06-20T01:39:51.920Z,20.47
2019-06-20T01:40:56.148Z,21.03
2019-06-20T01:42:00.952Z,19.20
2019-06-20T01:43:05.196Z,22.03
2019-06-20T01:44:10.023Z,20.90
2019-06-20T01:45:14.232Z,19.67
2019-06-20T01:46:19.039Z,19.70
2019-06-20T01:47:23.259Z,20.27
2019-06-20T01:48:28.113Z,19.63
2019-06-20T01:49:32.337Z,22.60
2019-06-20T01:50:37.144Z,20.40
2019-06-20T01:51:41.449Z,21.53
2019-06-20T01:52:46.285Z,20.35
2019-06-20T01:53:50.548Z,19.90
2019-06-20T01:54:55.391Z,20.87
2019-06-20T01:55:59.639Z,19.60
2019-06-20T01:57:04.450Z,19.27
2019-06-20T01:58:08.701Z,21.47
2019-06-20T01:59:13.510Z,19.97
2019-06-20T02:00:32.810Z,20.10
2019-06-20T02:01:37.634Z,20.10
2019-06-20T02:02:41.847Z,18.53
2019-06-20T02:03:46.792Z,19.50
2019-06-20T02:04:51.022Z,21.67
2019-06-20T02:05:55.838Z,20.43
2019-06-20T02:07:00.052Z,26.47
2019-06-20T02:08:04.860Z,20.60
2019-06-20T02:09:09.353Z,22.07
2019-06-20T02:10:14.189Z,23.93
2019-06-20T02:11:18.433Z,21.87
2019-06-20T02:12:23.240Z,27.43
2019-06-20T02:13:27.493Z,21.23
2019-06-20T02:14:32.325Z,25.43
2019-06-20T02:15:36.564Z,20.83
2019-06-20T02:16:41.384Z,21.87
2019-06-20T02:17:45.615Z,22.43
2019-06-20T02:18:50.459Z,20.83
2019-06-20T02:19:54.695Z,24.70
2019-06-20T02:20:59.527Z,22.83
2019-06-20T02:22:03.785Z,21.40
2019-06-20T02:23:08.599Z,23.30
2019-06-20T02:24:12.857Z,22.47
2019-06-20T02:25:18.778Z,24.50
2019-06-20T02:26:23.000Z,25.43
2019-06-20T02:27:27.812Z,22.60
2019-06-20T02:28:32.074Z,25.70
2019-06-20T02:29:37.095Z,25.87
2019-06-20T02:30:41.325Z,32.03
2019-06-20T02:31:46.150Z,33.63
2019-06-20T02:32:50.377Z,23.93
2019-06-20T02:33:55.230Z,25.43
2019-06-20T02:34:59.493Z,23.17
2019-06-20T02:36:04.300Z,25.77
2019-06-20T02:37:08.519Z,24.73
2019-06-20T02:38:13.340Z,23.67
2019-06-20T02:39:17.657Z,28.33
2019-06-20T02:40:22.469Z,23.70
2019-06-20T02:41:26.698Z,30.47
2019-06-20T02:42:31.504Z,36.43
2019-06-20T02:43:35.726Z,24.93
2019-06-20T02:44:40.598Z,22.73
2019-06-20T02:45:44.830Z,22.10
2019-06-20T02:46:49.634Z,35.57
2019-06-20T02:47:53.857Z,31.10
2019-06-20T02:48:58.707Z,22.63
2019-06-20T02:50:03.483Z,24.67
2019-06-20T02:51:08.267Z,28.53
2019-06-20T02:52:12.499Z,26.27
2019-06-20T02:53:17.314Z,29.17
2019-06-20T02:54:21.561Z,23.47
2019-06-20T02:55:26.376Z,28.70
2019-06-20T02:56:30.609Z,24.57
2019-06-20T02:57:35.417Z,27.00
2019-06-20T02:58:39.660Z,30.27
2019-06-20T02:59:44.476Z,22.97
2019-06-20T03:00:58.271Z,23.00
2019-06-20T03:02:03.081Z,26.67
2019-06-20T03:03:07.315Z,26.77
2019-06-20T03:04:12.146Z,33.57
2019-06-20T03:05:16.372Z,21.57
2019-06-20T03:06:21.174Z,33.37
2019-06-20T03:07:25.427Z,25.67
2019-06-20T03:08:30.205Z,32.43
2019-06-20T03:09:34.456Z,36.33
2019-06-20T03:10:39.716Z,23.60
2019-06-20T03:11:45.300Z,22.23
2019-06-20T03:12:50.248Z,38.13
2019-06-20T03:13:54.468Z,23.50
2019-06-20T03:14:59.313Z,33.97
2019-06-20T03:16:03.649Z,26.43
2019-06-20T03:17:08.462Z,25.17
2019-06-20T03:18:12.679Z,23.10
2019-06-20T03:19:17.484Z,24.40
2019-06-20T03:20:21.737Z,24.57
2019-06-20T03:21:26.543Z,27.47
2019-06-20T03:22:30.764Z,27.10
2019-06-20T03:23:35.580Z,22.27
2019-06-20T03:24:39.836Z,26.40
2019-06-20T03:25:44.645Z,65.67
2019-06-20T03:26:48.926Z,73.73
2019-06-20T03:27:53.692Z,24.23
2019-06-20T03:28:57.938Z,24.13
2019-06-20T03:30:02.783Z,24.67
2019-06-20T03:31:06.997Z,30.90
2019-06-20T03:32:11.830Z,27.57
2019-06-20T03:33:16.190Z,26.47
2019-06-20T03:34:21.003Z,29.93
2019-06-20T03:35:25.292Z,25.77
2019-06-20T03:36:30.125Z,24.93
2019-06-20T03:37:34.341Z,27.63
2019-06-20T03:38:39.154Z,27.20
2019-06-20T03:39:43.381Z,30.97
2019-06-20T03:40:48.232Z,25.73
2019-06-20T03:41:52.452Z,30.23
2019-06-20T03:42:57.274Z,24.27
2019-06-20T03:44:01.508Z,33.20
2019-06-20T03:45:06.352Z,28.37
2019-06-20T03:46:10.576Z,27.00
2019-06-20T03:47:15.386Z,30.80
2019-06-20T03:48:19.629Z,31.20
2019-06-20T03:49:24.444Z,40.07
2019-06-20T03:50:28.703Z,27.57
2019-06-20T03:51:33.516Z,26.63
2019-06-20T03:52:37.743Z,27.10
2019-06-20T03:53:42.566Z,29.40
2019-06-20T03:54:46.892Z,30.40
2019-06-20T03:55:51.748Z,29.00
2019-06-20T03:56:55.964Z,33.17
2019-06-20T03:58:01.276Z,32.30
2019-06-20T03:59:05.529Z,44.03
2019-06-20T04:00:10.329Z,34.50
2019-06-20T04:01:14.583Z,30.00
2019-06-20T04:02:19.391Z,82.10
2019-06-20T04:03:23.612Z,32.40
2019-06-20T04:04:28.424Z,29.10
2019-06-20T04:05:32.689Z,63.20
2019-06-20T04:06:37.509Z,36.80
2019-06-20T04:07:41.791Z,48.57
2019-06-20T04:08:46.640Z,38.00
2019-06-20T04:09:50.873Z,31.97
2019-06-20T04:10:55.747Z,39.33
2019-06-20T04:11:59.983Z,36.97
2019-06-20T04:13:04.793Z,56.53
2019-06-20T04:14:09.032Z,38.17
2019-06-20T04:15:18.998Z,35.97
2019-06-20T04:16:19.790Z,36.70
2019-06-20T04:17:24.641Z,40.73
2019-06-20T04:18:28.860Z,50.90
2019-06-20T04:19:33.687Z,80.33
2019-06-20T04:20:37.949Z,37.63
2019-06-20T04:21:42.759Z,37.07
2019-06-20T04:22:47.011Z,39.83
2019-06-20T04:23:51.821Z,36.93
2019-06-20T04:24:56.052Z,36.63
2019-06-20T04:26:00.991Z,39.73
2019-06-20T04:27:05.222Z,36.57
2019-06-20T04:28:10.033Z,52.87
2019-06-20T04:29:14.284Z,44.10
2019-06-20T04:30:19.309Z,46.50
2019-06-20T04:31:23.547Z,38.07
2019-06-20T04:32:28.356Z,35.60
2019-06-20T04:33:32.592Z,35.93
2019-06-20T04:34:37.430Z,47.60
2019-06-20T04:35:41.665Z,37.67
2019-06-20T04:36:48.170Z,49.37
2019-06-20T04:37:52.566Z,43.30
2019-06-20T04:38:57.327Z,35.33
2019-06-20T04:40:01.565Z,37.00
2019-06-20T04:41:06.396Z,40.57
2019-06-20T04:42:10.615Z,35.57
2019-06-20T04:43:15.434Z,66.13
2019-06-20T04:44:19.658Z,35.27
2019-06-20T04:45:45.090Z,47.17
2019-06-20T04:46:58.020Z,37.53
2019-06-20T04:48:02.839Z,34.80
2019-06-20T04:49:07.058Z,39.98
2019-06-20T04:50:11.875Z,38.57
2019-06-20T04:51:16.144Z,36.80
2019-06-20T04:52:21.037Z,44.23
2019-06-20T04:53:25.264Z,35.93
2019-06-20T04:54:30.072Z,34.83
2019-06-20T04:55:34.310Z,33.85
2019-06-20T04:56:39.137Z,42.23
2019-06-20T04:57:43.376Z,44.23
2019-06-20T04:58:48.214Z,53.70
2019-06-20T05:00:02.365Z,76.93
2019-06-20T05:01:07.167Z,35.60
2019-06-20T05:02:14.752Z,72.92
2019-06-20T05:03:17.879Z,34.83
2019-06-20T05:04:22.117Z,55.05
2019-06-20T05:05:26.936Z,36.33
2019-06-20T05:06:31.159Z,36.95
2019-06-20T05:07:36.005Z,37.88
2019-06-20T05:08:40.219Z,34.90
2019-06-20T05:09:45.084Z,45.45
2019-06-20T05:10:49.296Z,56.00
2019-06-20T05:11:54.108Z,34.67
2019-06-20T05:12:58.381Z,43.90
2019-06-20T05:14:03.232Z,86.20
2019-06-20T05:15:07.964Z,53.28
2019-06-20T05:16:12.796Z,37.13
2019-06-20T05:17:17.064Z,42.70
2019-06-20T05:18:21.871Z,33.10
2019-06-20T05:19:26.100Z,33.40
2019-06-20T05:20:30.959Z,54.45
2019-06-20T05:21:35.177Z,40.52
2019-06-20T05:22:40.011Z,57.20
2019-06-20T05:23:44.339Z,35.20
2019-06-20T05:24:49.160Z,32.55
2019-06-20T05:25:53.663Z,31.40
2019-06-20T05:26:58.543Z,31.37
2019-06-20T05:28:03.707Z,36.55
2019-06-20T05:29:08.484Z,29.82
2019-06-20T05:30:12.709Z,43.02
2019-06-20T05:31:17.513Z,32.15
2019-06-20T05:32:21.763Z,34.10
2019-06-20T05:33:26.604Z,38.55
2019-06-20T05:34:30.828Z,30.32
2019-06-20T05:35:35.676Z,28.70
2019-06-20T05:36:39.901Z,76.57
2019-06-20T05:37:44.851Z,58.02
2019-06-20T05:38:49.084Z,39.85
2019-06-20T05:39:53.899Z,45.55
2019-06-20T05:40:58.158Z,58.05
2019-06-20T05:42:03.029Z,29.98
2019-06-20T05:43:07.340Z,37.17
2019-06-20T05:44:12.168Z,31.45
2019-06-20T05:45:16.391Z,30.40
2019-06-20T05:46:21.267Z,34.78
2019-06-20T05:47:25.492Z,47.70
2019-06-20T05:48:30.363Z,50.23
2019-06-20T05:49:34.609Z,60.03
2019-06-20T05:50:40.348Z,30.43
2019-06-20T05:51:44.583Z,67.82
2019-06-20T05:52:49.425Z,69.22
2019-06-20T05:53:53.648Z,47.60
2019-06-20T05:54:58.457Z,32.98
2019-06-20T05:56:02.686Z,44.25
2019-06-20T05:57:07.501Z,31.93
2019-06-20T05:58:11.760Z,45.33
2019-06-20T05:59:16.637Z,53.55
2019-06-20T06:00:20.860Z,42.75
2019-06-20T06:01:26.428Z,30.95
2019-06-20T06:02:30.659Z,40.63
2019-06-20T06:03:35.500Z,40.08
2019-06-20T06:04:39.725Z,51.90
2019-06-20T06:05:44.535Z,41.70
2019-06-20T06:06:48.788Z,35.40
2019-06-20T06:07:53.564Z,52.20
2019-06-20T06:08:57.829Z,36.17
2019-06-20T06:10:04.398Z,42.15
2019-06-20T06:11:08.637Z,57.67
2019-06-20T06:12:13.447Z,38.33
2019-06-20T06:13:17.772Z,38.33
2019-06-20T06:14:22.644Z,35.00
2019-06-20T06:15:26.887Z,46.18
2019-06-20T06:16:31.712Z,70.40
2019-06-20T06:17:35.932Z,36.88
2019-06-20T06:18:40.776Z,40.20
2019-06-20T06:19:45.256Z,39.92
2019-06-20T06:20:50.068Z,42.93
2019-06-20T06:21:54.425Z,43.52
2019-06-20T06:22:59.238Z,37.45
2019-06-20T06:24:03.479Z,42.53
2019-06-20T06:25:08.300Z,36.63
2019-06-20T06:26:12.589Z,47.05
2019-06-20T06:27:17.389Z,37.65
2019-06-20T06:28:21.672Z,42.75
2019-06-20T06:29:26.584Z,44.27
2019-06-20T06:30:30.829Z,47.75
2019-06-20T06:31:35.655Z,44.98
2019-06-20T06:32:40.734Z,48.30
2019-06-20T06:33:45.726Z,38.28
2019-06-20T06:34:50.000Z,37.25
2019-06-20T06:35:54.828Z,57.13
2019-06-20T06:36:59.059Z,37.73
2019-06-20T06:38:03.984Z,49.13
2019-06-20T06:39:09.562Z,39.13
2019-06-20T06:40:14.375Z,42.15
2019-06-20T06:41:18.612Z,52.03
2019-06-20T06:42:23.406Z,50.67
2019-06-20T06:43:27.620Z,38.28
2019-06-20T06:44:32.500Z,35.38
2019-06-20T06:45:36.758Z,59.23
2019-06-20T06:46:47.149Z,37.90
2019-06-20T06:47:47.412Z,53.02
2019-06-20T06:48:52.253Z,44.33
2019-06-20T06:49:56.490Z,40.48
2019-06-20T06:51:01.684Z,46.55
2019-06-20T06:52:06.169Z,43.55
2019-06-20T06:53:11.010Z,45.30
2019-06-20T06:54:15.264Z,43.50
2019-06-20T06:55:20.077Z,39.03
2019-06-20T06:56:24.307Z,51.18
2019-06-20T06:57:29.332Z,42.73
2019-06-20T06:58:33.570Z,44.70
2019-06-20T06:59:38.415Z,44.25
2019-06-20T07:00:42.640Z,43.13
2019-06-20T07:01:47.453Z,54.65
2019-06-20T07:02:51.687Z,38.65
2019-06-20T07:03:56.493Z,35.25
2019-06-20T07:05:00.755Z,36.85
2019-06-20T07:06:05.592Z,40.90
2019-06-20T07:07:09.851Z,47.40
2019-06-20T07:08:14.667Z,37.75
2019-06-20T07:09:18.923Z,38.33
2019-06-20T07:10:24.015Z,36.45
2019-06-20T07:11:28.236Z,37.28
2019-06-20T07:12:33.063Z,45.12
2019-06-20T07:13:37.365Z,36.40
2019-06-20T07:14:42.951Z,35.85
2019-06-20T07:15:47.239Z,34.30
2019-06-20T07:17:00.217Z,33.35
2019-06-20T07:17:58.904Z,38.23
2019-06-20T07:19:03.762Z,31.00
2019-06-20T07:20:08.121Z,34.18
2019-06-20T07:21:12.964Z,35.90
2019-06-20T07:22:17.230Z,31.75
2019-06-20T07:23:22.067Z,31.60
2019-06-20T07:24:26.480Z,36.38
2019-06-20T07:25:31.306Z,30.05
2019-06-20T07:26:35.529Z,30.90
2019-06-20T07:27:40.348Z,26.93
2019-06-20T07:28:44.587Z,27.65
2019-06-20T07:29:49.517Z,29.50
2019-06-20T07:30:53.751Z,27.27
2019-06-20T07:31:58.700Z,26.70
2019-06-20T07:33:02.990Z,30.30
2019-06-20T07:34:08.060Z,24.90
2019-06-20T07:35:12.383Z,27.07
2019-06-20T07:36:17.259Z,24.77
2019-06-20T07:37:21.530Z,26.57
2019-06-20T07:38:26.337Z,26.05
2019-06-20T07:39:30.595Z,23.98
2019-06-20T07:40:35.412Z,24.12
2019-06-20T07:41:39.660Z,23.42
2019-06-20T07:42:44.469Z,22.30
2019-06-20T07:43:48.727Z,20.72
2019-06-20T07:44:53.563Z,21.85
2019-06-20T07:46:02.745Z,24.60
2019-06-20T07:47:17.004Z,19.98
2019-06-20T07:48:10.403Z,27.05
2019-06-20T07:49:15.371Z,21.42
2019-06-20T07:50:19.645Z,21.82
2019-06-20T07:51:24.591Z,23.20
2019-06-20T07:52:28.818Z,22.55
2019-06-20T07:53:33.663Z,22.67
2019-06-20T07:54:37.885Z,23.10
2019-06-20T07:55:42.736Z,21.50
2019-06-20T07:56:46.969Z,21.90
2019-06-20T07:57:51.778Z,22.80
2019-06-20T07:58:56.129Z,25.88
2019-06-20T08:00:00.955Z,23.52
2019-06-20T08:01:05.409Z,25.25
2019-06-20T08:02:10.229Z,23.67
2019-06-20T08:03:14.456Z,28.38
2019-06-20T08:04:19.321Z,30.02
2019-06-20T08:05:23.663Z,24.30
2019-06-20T08:06:28.572Z,23.80
2019-06-20T08:07:32.795Z,24.05
2019-06-20T08:08:37.860Z,22.90
2019-06-20T08:09:45.196Z,23.35
2019-06-20T08:10:48.771Z,25.95
2019-06-20T08:11:53.058Z,26.02
2019-06-20T08:12:57.828Z,24.18
2019-06-20T08:14:02.064Z,26.77
2019-06-20T08:15:14.914Z,27.40
2019-06-20T08:16:13.369Z,23.75
2019-06-20T08:17:34.398Z,25.52
2019-06-20T08:18:24.285Z,25.85
2019-06-20T08:19:29.310Z,28.10
2019-06-20T08:20:33.723Z,27.10
2019-06-20T08:21:38.529Z,26.45
2019-06-20T08:22:43.374Z,27.50
2019-06-20T08:23:48.192Z,27.80
2019-06-20T08:24:53.681Z,27.02
2019-06-20T08:26:00.446Z,29.40
2019-06-20T08:27:04.971Z,26.42
2019-06-20T08:28:09.785Z,30.27
2019-06-20T08:29:20.867Z,31.70
2019-06-20T08:30:22.171Z,28.80
2019-06-20T08:31:27.035Z,31.77
2019-06-20T08:32:31.846Z,32.93
2019-06-20T08:33:36.083Z,29.50
2019-06-20T08:34:40.892Z,28.80
2019-06-20T08:35:45.189Z,32.65
2019-06-20T08:36:50.019Z,33.28
2019-06-20T08:37:54.366Z,31.48
2019-06-20T08:39:00.215Z,31.52
2019-06-20T08:40:06.471Z,32.85
2019-06-20T08:41:11.422Z,30.88
2019-06-20T08:42:16.213Z,29.57
2019-06-20T08:43:21.040Z,32.75
2019-06-20T08:44:25.477Z,28.30
2019-06-20T08:45:31.485Z,32.33
2019-06-20T08:46:36.284Z,27.77
2019-06-20T08:47:41.088Z,29.72
2019-06-20T08:48:45.569Z,26.85
2019-06-20T08:49:50.380Z,28.87
2019-06-20T08:50:56.812Z,28.02
2019-06-20T08:52:01.377Z,27.17
2019-06-20T08:53:05.916Z,28.80
2019-06-20T08:54:10.844Z,27.37
2019-06-20T08:55:15.545Z,27.70
2019-06-20T08:56:20.501Z,28.75
2019-06-20T08:57:24.740Z,26.15
2019-06-20T08:58:29.647Z,26.37
2019-06-20T08:59:33.878Z,28.32
2019-06-20T09:00:38.888Z,26.00
2019-06-20T09:01:43.906Z,25.62
2019-06-20T09:02:48.769Z,26.35
2019-06-20T09:03:55.151Z,26.23
2019-06-20T09:05:00.293Z,27.00
2019-06-20T09:06:04.850Z,27.45
2019-06-20T09:07:09.777Z,29.02
2019-06-20T09:08:14.027Z,29.20
2019-06-20T09:09:18.922Z,28.67
2019-06-20T09:10:27.588Z,28.75
2019-06-20T09:11:32.433Z,27.82
2019-06-20T09:12:36.681Z,26.45
2019-06-20T09:13:41.502Z,26.87
2019-06-20T09:14:45.762Z,26.90
2019-06-20T09:15:50.556Z,25.75
2019-06-20T09:16:54.989Z,26.80
2019-06-20T09:18:00.713Z,26.42
2019-06-20T09:19:05.292Z,24.98
2019-06-20T09:20:10.083Z,25.27
2019-06-20T09:21:14.536Z,27.65
2019-06-20T09:22:19.373Z,26.82
2019-06-20T09:23:23.716Z,24.72
2019-06-20T09:24:28.731Z,31.75
2019-06-20T09:25:32.972Z,27.45
2019-06-20T09:26:37.988Z,26.12
2019-06-20T09:27:42.248Z,28.67
2019-06-20T09:28:47.041Z,36.77
2019-06-20T09:29:51.591Z,43.87
2019-06-20T09:30:59.204Z,27.73
2019-06-20T09:32:04.665Z,37.63
2019-06-20T09:33:09.633Z,27.77
2019-06-20T09:34:13.860Z,26.23
2019-06-20T09:35:18.701Z,26.87
2019-06-20T09:36:22.953Z,33.48
2019-06-20T09:37:27.852Z,30.12
2019-06-20T09:38:32.427Z,29.35
2019-06-20T09:39:37.418Z,36.28
2019-06-20T09:40:41.629Z,27.98
2019-06-20T09:41:46.675Z,25.50
2019-06-20T09:42:51.701Z,25.80
2019-06-20T09:43:58.556Z,27.62
2019-06-20T09:45:03.256Z,23.47
2019-06-20T09:46:08.068Z,22.10
2019-06-20T09:47:12.331Z,22.62
2019-06-20T09:48:17.144Z,23.95
2019-06-20T09:49:21.692Z,26.20
2019-06-20T09:50:26.802Z,25.75
2019-06-20T09:51:31.035Z,28.10
2019-06-20T09:52:35.883Z,26.00
2019-06-20T09:53:40.114Z,31.80
2019-06-20T09:54:44.945Z,19.32
2019-06-20T09:55:49.999Z,37.03
2019-06-20T09:56:56.527Z,16.20
2019-06-20T09:58:00.780Z,17.90
2019-06-20T09:59:06.052Z,19.12
2019-06-20T10:00:10.938Z,14.03
2019-06-20T10:01:15.901Z,24.43
2019-06-20T10:02:20.167Z,20.77
2019-06-20T10:03:26.419Z,13.58
2019-06-20T10:04:30.603Z,17.80
2019-06-20T10:05:36.195Z,12.07
2019-06-20T10:06:40.428Z,17.10
2019-06-20T10:07:45.563Z,12.07
2019-06-20T10:08:52.283Z,9.55
2019-06-20T10:09:57.236Z,18.35
2019-06-20T10:11:01.517Z,18.45
2019-06-20T10:12:06.563Z,10.48
2019-06-20T10:13:10.809Z,10.58
2019-06-20T10:14:15.726Z,14.83
2019-06-20T10:15:22.164Z,13.70
2019-06-20T10:16:26.978Z,18.40
2019-06-20T10:17:31.214Z,21.77
2019-06-20T10:18:36.069Z,14.35
2019-06-20T10:19:40.301Z,16.57
2019-06-20T10:20:46.107Z,22.13
2019-06-20T10:21:51.928Z,19.12
2019-06-20T10:22:57.466Z,19.27
2019-06-20T10:24:01.825Z,18.60
2019-06-20T10:25:06.929Z,14.25
2019-06-20T10:26:11.157Z,16.02
2019-06-20T10:27:16.148Z,15.80
2019-06-20T10:28:20.467Z,14.65
2019-06-20T10:29:25.290Z,15.60
2019-06-20T10:30:29.553Z,12.40
2019-06-20T10:31:35.140Z,10.98
2019-06-20T10:32:39.409Z,10.93
2019-06-20T10:33:45.762Z,14.80
2019-06-20T10:34:50.620Z,13.25
2019-06-20T10:35:57.142Z,12.65
2019-06-20T10:37:01.531Z,12.78
2019-06-20T10:38:06.379Z,10.18
2019-06-20T10:39:11.617Z,12.33
2019-06-20T10:40:16.543Z,12.35
2019-06-20T10:41:20.821Z,11.75
2019-06-20T10:42:25.833Z,17.42
2019-06-20T10:43:30.238Z,16.40
2019-06-20T10:44:35.116Z,10.45
2019-06-20T10:45:39.343Z,15.38
2019-06-20T10:46:44.598Z,12.90
2019-06-20T10:47:50.970Z,17.87
2019-06-20T10:48:55.919Z,13.62
2019-06-20T10:50:00.162Z,12.88
2019-06-20T10:51:22.178Z,10.60
2019-06-20T10:52:26.413Z,10.10
2019-06-20T10:53:31.259Z,10.10
2019-06-20T10:54:35.513Z,14.05
2019-06-20T10:55:41.535Z,13.55
2019-06-20T10:56:47.138Z,8.63
2019-06-20T10:57:52.211Z,13.15
2019-06-20T10:58:56.562Z,10.88
2019-06-20T11:00:01.394Z,11.48
2019-06-20T11:01:05.809Z,10.05
2019-06-20T11:02:10.633Z,14.58
2019-06-20T11:03:15.064Z,13.98
2019-06-20T11:04:19.956Z,10.32
2019-06-20T11:05:24.204Z,9.95
2019-06-20T11:06:29.059Z,13.60
2019-06-20T11:07:33.307Z,11.45
2019-06-20T11:08:38.946Z,13.08
2019-06-20T11:09:45.223Z,12.68
2019-06-20T11:10:50.112Z,10.30
2019-06-20T11:11:54.441Z,11.40
2019-06-20T11:12:59.249Z,9.55
2019-06-20T11:14:03.515Z,8.88
2019-06-20T11:15:08.420Z,10.03
2019-06-20T11:16:12.884Z,9.25
2019-06-20T11:17:17.780Z,9.00
2019-06-20T11:18:21.975Z,8.38
2019-06-20T11:19:26.816Z,7.60
2019-06-20T11:20:31.040Z,8.48
2019-06-20T11:21:37.928Z,9.83
2019-06-20T11:22:43.196Z,6.58
2019-06-20T11:23:48.136Z,6.33
2019-06-20T11:24:52.616Z,7.17
2019-06-20T11:25:57.590Z,6.70
2019-06-20T11:27:01.795Z,6.28
2019-06-20T11:28:06.722Z,7.00
2019-06-20T11:29:11.068Z,6.42
2019-06-20T11:30:16.048Z,6.47
2019-06-20T11:31:20.325Z,6.62
2019-06-20T11:32:25.146Z,5.97
2019-06-20T11:33:29.433Z,6.58
2019-06-20T11:34:34.325Z,5.90
2019-06-20T11:35:39.282Z,5.10
2019-06-20T11:36:45.115Z,5.25
2019-06-20T11:37:49.356Z,5.95
2019-06-20T11:38:54.341Z,6.15
2019-06-20T11:39:58.598Z,6.33
2019-06-20T11:41:03.416Z,6.53
2019-06-20T11:42:07.644Z,5.25
2019-06-20T11:43:12.464Z,5.55
2019-06-20T11:44:17.651Z,5.40
2019-06-20T11:45:22.456Z,4.90
2019-06-20T11:46:26.669Z,4.17
2019-06-20T11:47:31.480Z,6.03
2019-06-20T11:48:36.768Z,4.37
2019-06-20T11:49:42.491Z,4.97
2019-06-20T11:50:46.880Z,6.08
2019-06-20T11:51:51.692Z,6.17
2019-06-20T11:52:56.022Z,6.45
2019-06-20T11:54:00.882Z,5.90
2019-06-20T11:55:05.770Z,5.17
2019-06-20T11:56:10.577Z,5.85
2019-06-20T11:57:14.819Z,4.97
2019-06-20T11:58:19.645Z,8.13
2019-06-20T11:59:23.888Z,5.90
2019-06-20T12:00:28.741Z,7.85
2019-06-20T12:01:33.337Z,6.58
2019-06-20T12:02:40.541Z,6.50
2019-06-20T12:03:44.628Z,8.90
2019-06-20T12:04:49.566Z,7.80
2019-06-20T12:05:54.992Z,7.55
2019-06-20T12:06:59.832Z,7.97
2019-06-20T12:08:04.053Z,8.20
2019-06-20T12:09:09.177Z,8.85
2019-06-20T12:10:13.446Z,9.05
2019-06-20T12:11:18.270Z,8.13
2019-06-20T12:12:22.469Z,9.45
2019-06-20T12:13:27.271Z,8.78
2019-06-20T12:14:31.497Z,9.68
2019-06-20T12:15:36.329Z,8.20
2019-06-20T12:16:40.833Z,7.83
2019-06-20T12:17:47.146Z,7.70
2019-06-20T12:18:51.667Z,7.20
2019-06-20T12:19:56.516Z,6.80
2019-06-20T12:21:00.764Z,6.75
2019-06-20T12:22:05.857Z,5.47
2019-06-20T12:23:10.085Z,5.72
2019-06-20T12:24:14.884Z,6.05
2019-06-20T12:25:19.141Z,6.33
2019-06-20T12:26:23.956Z,6.35
2019-06-20T12:27:28.291Z,6.78
2019-06-20T12:28:33.128Z,7.12
2019-06-20T12:29:37.730Z,7.30
2019-06-20T12:30:43.689Z,6.47
2019-06-20T12:31:48.465Z,7.20
2019-06-20T12:32:53.441Z,6.83
2019-06-20T12:33:57.673Z,7.53
2019-06-20T12:35:02.527Z,7.70
2019-06-20T12:36:07.613Z,8.33
2019-06-20T12:37:12.476Z,8.50
2019-06-20T12:38:17.294Z,7.65
2019-06-20T12:39:22.101Z,8.68
2019-06-20T12:40:26.466Z,8.15
2019-06-20T12:41:31.283Z,8.00
2019-06-20T12:42:35.496Z,7.75
2019-06-20T12:43:41.850Z,7.85
2019-06-20T12:44:46.126Z,7.70
2019-06-20T12:45:51.738Z,9.30
2019-06-20T12:46:55.970Z,8.05
2019-06-20T12:48:00.956Z,9.25
2019-06-20T12:49:05.203Z,7.92
2019-06-20T12:50:10.477Z,9.20
2019-06-20T12:51:14.739Z,10.43
2019-06-20T12:52:19.560Z,7.55
2019-06-20T12:53:23.793Z,8.55
2019-06-20T12:54:30.312Z,9.03
2019-06-20T12:55:35.685Z,8.20
2019-06-20T12:56:41.838Z,8.48
2019-06-20T12:57:46.494Z,7.62
2019-06-20T12:58:51.621Z,7.35
2019-06-20T12:59:55.861Z,8.45
2019-06-20T13:01:00.720Z,7.78
2019-06-20T13:02:04.957Z,7.97
2019-06-20T13:03:10.028Z,8.38
2019-06-20T13:04:14.242Z,6.08
2019-06-20T13:05:19.458Z,7.30
2019-06-20T13:06:23.735Z,8.25
2019-06-20T13:07:28.564Z,6.12
2019-06-20T13:08:32.852Z,6.58
2019-06-20T13:09:39.438Z,7.60
2019-06-20T13:10:44.236Z,7.00
2019-06-20T13:11:49.339Z,6.67
2019-06-20T13:12:53.648Z,8.03
2019-06-20T13:13:58.752Z,7.12
2019-06-20T13:15:02.986Z,7.87
2019-06-20T13:16:08.253Z,7.17
2019-06-20T13:17:12.812Z,9.18
2019-06-20T13:18:17.622Z,7.20
2019-06-20T13:19:22.335Z,6.70
2019-06-20T13:20:27.149Z,7.00
2019-06-20T13:21:31.822Z,6.67
2019-06-20T13:22:37.824Z,6.25
2019-06-20T13:23:43.194Z,6.10
2019-06-20T13:24:49.467Z,7.75
2019-06-20T13:25:54.356Z,7.87
2019-06-20T13:26:59.207Z,8.20
2019-06-20T13:28:04.038Z,8.60
2019-06-20T13:29:09.104Z,8.45
2019-06-20T13:30:13.508Z,7.30
2019-06-20T13:31:18.344Z,7.70
2019-06-20T13:32:22.751Z,8.48
2019-06-20T13:33:27.596Z,7.55
2019-06-20T13:34:31.832Z,7.92
2019-06-20T13:35:36.679Z,8.35
2019-06-20T13:36:41.286Z,8.78
2019-06-20T13:37:47.844Z,13.43
2019-06-20T13:38:53.262Z,8.70
2019-06-20T13:39:58.141Z,11.08
2019-06-20T13:41:02.376Z,10.65
2019-06-20T13:42:07.215Z,8.55
2019-06-20T13:43:12.040Z,13.90
2019-06-20T13:44:17.624Z,8.55
2019-06-20T13:45:23.088Z,9.28
2019-06-20T13:46:27.900Z,8.93
2019-06-20T13:47:32.193Z,10.45
2019-06-20T13:48:37.000Z,9.20
2019-06-20T13:49:41.509Z,7.97
2019-06-20T13:50:47.452Z,9.58
2019-06-20T13:51:51.876Z,9.73
2019-06-20T13:52:56.821Z,10.98
2019-06-20T13:54:01.216Z,9.70
2019-06-20T13:55:06.389Z,10.05
2019-06-20T13:56:10.617Z,9.03
2019-06-20T13:57:15.607Z,9.25
2019-06-20T13:58:19.843Z,9.25
2019-06-20T13:59:24.670Z,7.42
2019-06-20T14:00:28.886Z,10.38